Thunder radar more information blitzortung!


Radar de pluja more information rain snow radar


Visita la nostra xarxa de llocs de meteo:

Template documentation
and downloads

And another site



No particular awareness of the weather is required.    There are no Weather-warnings

Pagina Historial Weather Underground text

Diari Resum January 7, 2018 Unitats:  Mètric    Imperial   Tant
« Previous Dia
SegĂźent Dia »
Diari Setmana Mensual Anual Personalitzada
  Maxima: Minima: Media:
Temperatura: -17.8 °C 2.6 °C 7.6 °C
Punt de rosada: -17.8 °C 0.2 °C 5 °C
Humitat: Humidity % 79 % 83 %
Wind Speed: 0 km/h 0 km/h 4 km/h
RĂ fegues de vent: 0 km/h - -
Vent:- - SE
Pression baro: 0 hPa 997.9 hPa -
Precipitacions: 7.37 mm    
Historical Graphs
 
 
Dades de taula per January 7, 2018
Temps Temperatura Punt de rosada Pression baro Vent Wind Speed RĂ fegues de vent Humitat Rainfall Rate (Hourly)
-17.8 °C -17.8 °C 0 hPa Calm     Humidity % 0 mm
00:00 12.7 °C 10.1 °C 998.9 hPa ENE 5.6 km/h 5.6 km/h 84 % 4.06 mm
00:05 12.6 °C 10.2 °C 998.9 hPa NE 3.2 km/h 6.4 km/h 85 % 0 mm
00:08 12.6 °C 9.9 °C 997.9 hPa ESE 5.3 km/h 5.3 km/h 84 % 4.06 mm
00:25 11.2 °C 7.9 °C 999.9 hPa NE 3.2 km/h 4.8 km/h 80 % 0 mm
00:45 11.2 °C 7.7 °C 999.9 hPa East 1.6 km/h 3.2 km/h 79 % 0 mm
00:55 11.1 °C 7.6 °C 999.9 hPa NE 4.8 km/h 4.8 km/h 79 % 0 mm
01:05 11 °C 7.5 °C 999.9 hPa NNE 1.6 km/h 4.8 km/h 79 % 0 mm
01:25 11 °C 7.7 °C 999.9 hPa Calm   1.6 km/h 80 % 0 mm
01:45 11.1 °C 7.8 °C 999.9 hPa NNE 1.6 km/h 1.6 km/h 80 % 0 mm
01:55 11 °C 7.5 °C 999.9 hPa North 1.6 km/h 3.2 km/h 79 % 0 mm
02:35 11 °C 7.7 °C 1000.9 hPa NE 3.2 km/h 6.4 km/h 80 % 0 mm
02:45 11.1 °C 7.8 °C 1000.9 hPa NE 3.2 km/h 4.8 km/h 80 % 0 mm
03:15 10 °C 6.7 °C 1000.9 hPa SSE 4.8 km/h 8 km/h 80 % 0 mm
03:25 9.5 °C 6.1 °C 1001.9 hPa SSW 3.2 km/h 8 km/h 79 % 1.27 mm
03:45 9.2 °C 5.9 °C 1001.9 hPa SSW 4.8 km/h 20.9 km/h 80 % 0 mm
10:01 9.1 °C 5.8 °C 1001.9 hPa ESE 5.6 km/h 5.6 km/h 80 % 1.27 mm
10:07 9 °C 5.7 °C 1002.9 hPa NE 7.4 km/h 7.4 km/h 80 % 1.27 mm
10:12 9 °C 5.7 °C 1002.9 hPa NNE 5.6 km/h 5.6 km/h 80 % 1.27 mm
10:17 9 °C 5.9 °C 1002.9 hPa NNE 4.7 km/h 4.7 km/h 81 % 1.27 mm
10:20 9 °C 5.9 °C 1002.9 hPa NE 5.6 km/h 5.6 km/h 81 % 1.27 mm
10:24 9 °C 5.9 °C 1003.9 hPa ENE 5.6 km/h 5.6 km/h 81 % 2.29 mm
10:29 9 °C 6.1 °C 1003.9 hPa NE 5.6 km/h 5.6 km/h 82 % 2.29 mm
10:34 8.9 °C 6 °C 1003.9 hPa NE 5.6 km/h 5.6 km/h 82 % 2.29 mm
10:37 8.9 °C 6 °C 1002.9 hPa NNE 5.6 km/h 5.6 km/h 82 % 2.29 mm
10:42 8.9 °C 6.2 °C 1002.9 hPa NNE 3.7 km/h 3.7 km/h 83 % 2.29 mm
10:47 8.9 °C 6.2 °C 1002.9 hPa NNE 5.6 km/h 5.6 km/h 83 % 1.02 mm
10:48 9 °C 6.3 °C 1002.9 hPa NNE 5.6 km/h 5.6 km/h 83 % 1.02 mm
10:53 9 °C 6.3 °C 1003.9 hPa NNE 3.7 km/h 3.7 km/h 83 % 1.02 mm
10:54 9 °C 6.3 °C 1003.9 hPa NNE 4.2 km/h 4.2 km/h 83 % 1.02 mm
10:59 9 °C 6.4 °C 1003.9 hPa NNE 5.6 km/h 5.6 km/h 84 % 1.02 mm
11:01 9 °C 6.4 °C 1003.9 hPa NNE 4.7 km/h 4.7 km/h 84 % 1.02 mm
11:02 9 °C 6.4 °C 1003.9 hPa NNE 3.7 km/h 3.7 km/h 84 % 1.02 mm
11:08 9 °C 6.4 °C 1003.9 hPa North 3.7 km/h 3.7 km/h 84 % 1.02 mm
11:10 9 °C 6.4 °C 1003.9 hPa NNE 3.7 km/h 3.7 km/h 84 % 1.02 mm
11:15 9 °C 6.4 °C 1003.9 hPa NNE 5.8 km/h 5.8 km/h 84 % 1.02 mm
11:16 9 °C 6.4 °C 1003.9 hPa ENE 6.9 km/h 6.9 km/h 84 % 1.02 mm
11:18 9 °C 6.4 °C 1003.9 hPa NNE 7.4 km/h 7.4 km/h 84 % 1.02 mm
11:23 9 °C 6.4 °C 1003.9 hPa NNE 9.3 km/h 9.3 km/h 84 % 0 mm
11:28 9 °C 6.4 °C 1003.9 hPa NNE 7.4 km/h 7.6 km/h 84 % 0 mm
11:29 9 °C 6.4 °C 1003.9 hPa ENE 7.4 km/h 7.4 km/h 84 % 0 mm
11:31 9 °C 6.4 °C 1003.9 hPa NNE 5.8 km/h 5.8 km/h 84 % 1.02 mm
11:34 8.9 °C 6.5 °C 1003.9 hPa NNE 7.4 km/h 7.4 km/h 85 % 1.02 mm
11:39 8.9 °C 6.3 °C 1003.9 hPa NNE 5.6 km/h 5.6 km/h 84 % 1.02 mm
11:43 8.8 °C 6.4 °C 1003.9 hPa ENE 3.7 km/h 3.7 km/h 85 % 1.02 mm
11:48 8.8 °C 6.4 °C 1003.9 hPa ENE 3.9 km/h 3.9 km/h 85 % 1.02 mm
11:50 8.8 °C 6.4 °C 1005 hPa NNE 5.6 km/h 5.6 km/h 85 % 1.02 mm
11:54 8.7 °C 6.3 °C 1005 hPa NNE 5.6 km/h 5.6 km/h 85 % 1.02 mm
11:59 8.7 °C 6.3 °C 1005 hPa NNE 5.6 km/h 5.6 km/h 85 % 1.02 mm
12:00 8.7 °C 6.3 °C 1005 hPa NNE 3.7 km/h 3.7 km/h 85 % 1.02 mm
12:05 8.7 °C 6.3 °C 1005 hPa NNE 5.6 km/h 5.6 km/h 85 % 1.02 mm
12:10 8.7 °C 6.3 °C 1005 hPa ENE 5.6 km/h 5.6 km/h 85 % 2.03 mm
12:12 8.7 °C 6.3 °C 1005 hPa ENE 7.4 km/h 7.4 km/h 85 % 2.03 mm
12:15 8.6 °C 6.2 °C 1005 hPa ENE 7.4 km/h 7.4 km/h 85 % 2.03 mm
12:19 8.6 °C 6.2 °C 1005 hPa NE 7.4 km/h 7.4 km/h 85 % 2.03 mm
12:24 8.7 °C 6.3 °C 1005 hPa East 7.4 km/h 7.4 km/h 85 % 2.03 mm
12:25 8.7 °C 6.3 °C 1005 hPa NE 3.7 km/h 3.7 km/h 85 % 2.03 mm
12:30 8.7 °C 6.3 °C 1005 hPa ENE 4.2 km/h 4.2 km/h 85 % 2.03 mm
12:32 8.7 °C 6.3 °C 1005 hPa NNE 6.1 km/h 6.1 km/h 85 % 1.02 mm
12:37 8.7 °C 6.3 °C 1003.9 hPa ENE 9.3 km/h 9.3 km/h 85 % 1.02 mm
12:38 8.7 °C 6.3 °C 1003.9 hPa NNE 11.1 km/h 11.1 km/h 85 % 1.02 mm
12:43 8.7 °C 6.3 °C 1003.9 hPa NNE 3.7 km/h 3.7 km/h 85 % 1.02 mm
12:44 8.7 °C 6.3 °C 1003.9 hPa WNW 3.7 km/h   85 % 1.02 mm
12:49 8.8 °C 6.6 °C 1003.9 hPa Calm     86 % 2.03 mm
12:50 8.8 °C 6.6 °C 1003.9 hPa Calm     86 % 2.03 mm
12:55 8.8 °C 6.6 °C 1005 hPa NE 1.9 km/h 1.9 km/h 86 % 2.03 mm
12:57 8.8 °C 6.6 °C 1005 hPa NE 1.9 km/h   86 % 2.03 mm
13:00 8.8 °C 6.6 °C 1005 hPa NNW 3.7 km/h 3.7 km/h 86 % 2.03 mm
13:03 8.8 °C 6.6 °C 1005 hPa NNE 5.6 km/h 5.6 km/h 86 % 2.03 mm
13:08 8.8 °C 6.6 °C 1003.9 hPa ENE 6.4 km/h 6.4 km/h 86 % 2.03 mm
13:11 8.8 °C 6.6 °C 1003.9 hPa NNE 9.3 km/h 9.3 km/h 86 % 1.02 mm
13:16 8.8 °C 6.6 °C 1003.9 hPa ENE 8.7 km/h 8.7 km/h 86 % 1.02 mm
13:22 8.8 °C 6.6 °C 1005 hPa NE 9.3 km/h 9.3 km/h 86 % 1.02 mm
13:28 8.8 °C 6.6 °C 1005 hPa NE 7.4 km/h 7.4 km/h 86 % 1.02 mm
13:33 8.8 °C 6.8 °C 1005 hPa NNE 5.8 km/h 5.8 km/h 87 % 1.02 mm
13:34 8.8 °C 6.8 °C 1005 hPa NNE 7.4 km/h 7.4 km/h 87 % 1.02 mm
13:39 8.8 °C 6.8 °C 1003.9 hPa NNE 7.4 km/h 7.4 km/h 87 % 1.02 mm
13:40 8.8 °C 6.8 °C 1003.9 hPa NE 7.4 km/h 7.4 km/h 87 % 1.02 mm
13:41 8.8 °C 6.8 °C 1003.9 hPa ENE 5.6 km/h 5.6 km/h 87 % 1.02 mm
13:46 8.8 °C 6.8 °C 1003.9 hPa NNE 5.6 km/h 5.6 km/h 87 % 0 mm
13:51 8.8 °C 6.8 °C 1003.9 hPa NNE 7.4 km/h 7.4 km/h 87 % 0 mm
13:55 8.8 °C 6.8 °C 1003.9 hPa ENE 7.4 km/h 7.4 km/h 87 % 0 mm
13:57 8.8 °C 6.8 °C 1003.9 hPa NNE 7.4 km/h 7.4 km/h 87 % 0 mm
14:02 8.7 °C 6.5 °C 1003.9 hPa ENE 9.3 km/h 9.3 km/h 86 % 0 mm
14:06 8.7 °C 6.5 °C 1003.9 hPa NNE 7.4 km/h 7.4 km/h 86 % 0 mm
14:11 8.6 °C 6.4 °C 1003.9 hPa ENE 5.8 km/h 5.8 km/h 86 % 0 mm
14:13 8.6 °C 6.4 °C 1003.9 hPa NNE 5.6 km/h 5.6 km/h 86 % 0 mm
14:15 8.6 °C 6.4 °C 1003.9 hPa NNE 7.4 km/h 7.4 km/h 86 % 0 mm
14:19 8.6 °C 6.4 °C 1003.9 hPa NNE 9.3 km/h 9.3 km/h 86 % 0 mm
14:24 8.6 °C 6.2 °C 1002.9 hPa ENE 9.3 km/h 9.3 km/h 85 % 0 mm
14:27 8.6 °C 6.2 °C 1002.9 hPa ENE 13 km/h 13 km/h 85 % 0 mm
14:32 8.5 °C 6.1 °C 1002.9 hPa East 5.8 km/h 5.8 km/h 85 % 0 mm
14:34 8.5 °C 6.1 °C 1002.9 hPa ENE 5.6 km/h 5.6 km/h 85 % 0 mm
14:39 8.6 °C 6.2 °C 1003.9 hPa ENE 3.9 km/h 3.9 km/h 85 % 0 mm
14:40 8.6 °C 6.2 °C 1003.9 hPa ENE 3.7 km/h 3.7 km/h 85 % 0 mm
14:45 8.6 °C 6.2 °C 1003.9 hPa NNE 5.6 km/h 5.6 km/h 85 % 0 mm
14:50 8.6 °C 6.2 °C 1003.9 hPa WNW 3.7 km/h   85 % 0 mm
14:55 8.6 °C 6.2 °C 1003.9 hPa Calm     85 % 0 mm
14:56 8.6 °C 6.2 °C 1003.9 hPa Calm     85 % 0 mm
14:57 8.6 °C 6.2 °C 1003.9 hPa Calm     85 % 0 mm
15:02 8.7 °C 6.3 °C 1003.9 hPa SW 3.5 km/h 3.5 km/h 85 % 0 mm
15:04 8.6 °C 6.2 °C 1003.9 hPa SW 4.7 km/h 4.7 km/h 85 % 0 mm
15:09 8.6 °C 6.2 °C 1003.9 hPa SW 3.7 km/h 3.7 km/h 85 % 0 mm
15:10 8.6 °C 6.2 °C 1003.9 hPa SW 1.9 km/h   85 % 0 mm
15:15 8.6 °C 6.4 °C 1003.9 hPa Calm     86 % 0 mm
15:20 8.6 °C 6.4 °C 1003.9 hPa SW 3.7 km/h 3.7 km/h 86 % 0 mm
15:21 8.6 °C 6.4 °C 1003.9 hPa SSW 3.7 km/h 3.7 km/h 86 % 0 mm
15:26 8.6 °C 6.4 °C 1003.9 hPa SW 1.9 km/h   86 % 0 mm
15:31 8.6 °C 6.4 °C 1003.9 hPa South 3.7 km/h 3.7 km/h 86 % 0 mm
15:33 8.6 °C 6.4 °C 1003.9 hPa Calm     86 % 0 mm
15:37 8.6 °C 6.4 °C 1003.9 hPa ENE 2.6 km/h   86 % 0 mm
15:41 8.5 °C 6.3 °C 1003.9 hPa NNW 1.9 km/h 1.9 km/h 86 % 0 mm
15:46 8.5 °C 6.3 °C 1003.9 hPa South 1.9 km/h   86 % 0 mm
15:48 8.5 °C 6.3 °C 1003.9 hPa NNE 2.3 km/h 2.3 km/h 86 % 0 mm
15:53 8.5 °C 6.3 °C 1005 hPa NNE 3.7 km/h 3.7 km/h 86 % 0 mm
15:55 8.5 °C 6.3 °C 1005 hPa NNE 5.6 km/h 5.6 km/h 86 % 0 mm
16:00 8.4 °C 6.2 °C 1005 hPa NNE 3.2 km/h 4.8 km/h 86 % 0 mm
16:05 8.4 °C 6.2 °C 1005 hPa Calm   3.2 km/h 86 % 0 mm
16:07 8.4 °C 6.2 °C 1003.9 hPa Calm     86 % 0 mm
16:12 8.4 °C 6.2 °C 1003.9 hPa East 3.7 km/h 3.7 km/h 86 % 0 mm
16:15 8.3 °C 6.1 °C 1003.9 hPa SE 1.9 km/h   86 % 0 mm
16:20 8.4 °C 6.2 °C 1005 hPa WSW 3.7 km/h   86 % 0 mm
16:30 8.3 °C 5.9 °C 1005 hPa NE 11.1 km/h 11.1 km/h 85 % 0 mm
16:32 8.1 °C 5.7 °C 1005 hPa NNE 13 km/h 13 km/h 85 % 0 mm
16:37 8.1 °C 5.4 °C 1003.9 hPa NNE 16.7 km/h 16.7 km/h 83 % 0 mm
16:40 8.1 °C 5.4 °C 1003.9 hPa WNW 3.7 km/h 3.7 km/h 83 % 0 mm
16:45 8.1 °C 5.4 °C 1003.9 hPa WNW 5.6 km/h 5.6 km/h 83 % 0 mm
16:46 8.1 °C 5.4 °C 1003.9 hPa West 3.9 km/h 3.9 km/h 83 % 0 mm
16:51 8.2 °C 5.5 °C 1003.9 hPa SW 3.7 km/h 3.7 km/h 83 % 0 mm
16:53 8.2 °C 5.5 °C 1003.9 hPa NW 1.9 km/h   83 % 0 mm
16:58 8.2 °C 5.5 °C 1003.9 hPa NNE 1.9 km/h 1.9 km/h 83 % 0 mm
17:03 8.2 °C 5.5 °C 1003.9 hPa ENE 3.7 km/h 3.7 km/h 83 % 0 mm
17:08 8.1 °C 5.2 °C 1003.9 hPa NNE 6.9 km/h 6.9 km/h 82 % 0 mm
17:11 8 °C 5.1 °C 1003.9 hPa NNE 10 km/h 10 km/h 82 % 0 mm
17:16 8 °C 4.9 °C 1003.9 hPa NNE 9.3 km/h 9.3 km/h 81 % 0 mm
17:20 8 °C 4.8 °C 1003.9 hPa NNW 7.9 km/h 7.9 km/h 80 % 0 mm
17:25 8 °C 4.8 °C 1003.9 hPa WNW 3.7 km/h 3.7 km/h 80 % 0 mm
17:30 8 °C 4.9 °C 1003.9 hPa WSW 1.9 km/h 1.9 km/h 81 % 0 mm
17:34 8 °C 4.9 °C 1003.9 hPa NE 1.9 km/h   81 % 0 mm
17:38 7.9 °C 4.8 °C 1003.9 hPa NNE 5.6 km/h 5.6 km/h 81 % 0 mm
17:43 8 °C 5.1 °C 1003.9 hPa WSW 3.7 km/h 3.7 km/h 82 % 0 mm
17:45 8 °C 5.1 °C 1003.9 hPa SSW 4.7 km/h 4.7 km/h 82 % 0 mm
17:50 8 °C 5.1 °C 1003.9 hPa WNW 1.9 km/h 1.9 km/h 82 % 0 mm
17:55 8 °C 5.1 °C 1003.9 hPa WSW 2.6 km/h 2.6 km/h 82 % 0 mm
17:58 8 °C 5.1 °C 1003.9 hPa ESE 3.7 km/h 3.7 km/h 82 % 0 mm
18:03 7.9 °C 4.8 °C 1003.9 hPa ENE 5.6 km/h 5.6 km/h 81 % 0 mm
18:08 7.9 °C 4.8 °C 1005 hPa SW 5.6 km/h 5.6 km/h 81 % 0 mm
18:13 7.9 °C 4.7 °C 1005 hPa ENE 9.3 km/h 9.3 km/h 80 % 0 mm
18:15 7.9 °C 4.7 °C 1005 hPa West 3.2 km/h 9.7 km/h 80 % 0 mm
18:20 7.9 °C 4.7 °C 1005 hPa West 3.7 km/h 3.7 km/h 80 % 0 mm
18:23 7.9 °C 4.5 °C 1005 hPa ENE 6.1 km/h 6.1 km/h 79 % 0 mm
18:25 4.8 °C 2.3 °C 1007 hPa Calm   1.6 km/h 84 % 0 mm
18:28 7.9 °C 4.5 °C 1005 hPa SSE 3.7 km/h 3.7 km/h 79 % 0 mm
18:31 7.8 °C 4.4 °C 1005 hPa SSW 5.6 km/h 5.6 km/h 79 % 0 mm
18:35 4.7 °C 2.2 °C 1007 hPa Calm     84 % 0 mm
18:36 7.8 °C 4.4 °C 1005 hPa SSW 3.7 km/h 3.7 km/h 79 % 0 mm
18:40 7.7 °C 4.3 °C 1005 hPa West 3.2 km/h 8 km/h 79 % 0 mm
18:45 7.8 °C 4.4 °C 1005 hPa WSW 3.7 km/h 3.7 km/h 79 % 0 mm
18:50 7.6 °C 4.2 °C 1005 hPa SSW 1.9 km/h 1.9 km/h 79 % 0 mm
18:52 7.6 °C 4.2 °C 1005 hPa WSW 3.7 km/h 3.7 km/h 79 % 0 mm
18:57 7.6 °C 4.4 °C 1005 hPa SW 5.6 km/h 5.6 km/h 80 % 0 mm
19:02 7.5 °C 4.3 °C 1005 hPa SSW 5.8 km/h 5.8 km/h 80 % 0 mm
19:05 4.4 °C 1.9 °C 1007 hPa Calm     84 % 0 mm
19:07 7.5 °C 4.3 °C 1005 hPa WSW 5.6 km/h 5.6 km/h 80 % 0 mm
19:08 7.5 °C 4.3 °C 1005 hPa West 5.6 km/h 5.6 km/h 80 % 0 mm
19:13 7.4 °C 4.3 °C 1005 hPa SW 3.7 km/h 3.7 km/h 81 % 0 mm
19:15 4.4 °C 2.1 °C 1007 hPa Calm   1.6 km/h 85 % 0 mm
19:18 7.4 °C 4.3 °C 1005 hPa WSW 3.7 km/h 3.7 km/h 81 % 0 mm
19:20 7.3 °C 4.3 °C 1005 hPa WSW 3.7 km/h 3.7 km/h 81 % 0 mm
19:25 7.3 °C 4.4 °C 1005 hPa Calm   1.6 km/h 82 % 0 mm
19:28 7.3 °C 4.4 °C 1005 hPa Calm     82 % 0 mm
19:29 7.2 °C 4.3 °C 1005 hPa Calm     82 % 0 mm
19:34 7.2 °C 4.3 °C 1005 hPa NE 3.7 km/h 3.7 km/h 82 % 0 mm
19:35 4.1 °C 1.8 °C 1007 hPa ENE 1.6 km/h 1.6 km/h 85 % 0 mm
19:39 7.1 °C 4.4 °C 1005 hPa ENE 1.9 km/h 1.9 km/h 83 % 0 mm
19:45 4.1 °C 1.8 °C 1007 hPa Calm   3.2 km/h 85 % 0 mm
19:49 7 °C 4.3 °C 1005 hPa Calm     83 % 0 mm
19:54 6.9 °C 4.2 °C 1006 hPa South 3.7 km/h 3.7 km/h 83 % 0 mm
19:55 4.1 °C 1.8 °C 1008 hPa Calm     85 % 0 mm
19:57 6.9 °C 4.2 °C 1006 hPa SW 1.9 km/h 1.9 km/h 83 % 0 mm
20:02 6.8 °C 4.1 °C 1006 hPa SW 2.6 km/h   83 % 0 mm
20:07 6.7 °C 4 °C 1006 hPa WSW 5.6 km/h 5.6 km/h 83 % 0 mm
20:11 6.6 °C 3.9 °C 1006 hPa West 3.7 km/h 3.7 km/h 83 % 0 mm
20:15 4.1 °C 1.8 °C 1008 hPa Calm   1.6 km/h 85 % 0 mm
20:16 6.6 °C 3.9 °C 1006 hPa West 3.7 km/h 3.7 km/h 83 % 0 mm
20:21 6.6 °C 3.9 °C 1005 hPa SW 3.9 km/h 3.9 km/h 83 % 0 mm
20:22 6.6 °C 3.9 °C 1005 hPa SW 3.7 km/h 3.7 km/h 83 % 0 mm
20:25 3.8 °C 1.5 °C 1008 hPa Calm     85 % 0 mm
20:27 6.5 °C 3.8 °C 1005 hPa WSW 4.2 km/h 4.2 km/h 83 % 0 mm
20:32 6.5 °C 3.8 °C 1005 hPa WSW 3.9 km/h 3.9 km/h 83 % 0 mm
20:35 4 °C 1.6 °C 1007 hPa WNW 1.6 km/h 4.8 km/h 84 % 0 mm
20:37 6.5 °C 3.8 °C 1005 hPa WSW 3.9 km/h 3.9 km/h 83 % 0 mm
20:42 6.5 °C 3.8 °C 1005 hPa West 3.7 km/h 3.7 km/h 83 % 0 mm
20:47 6.5 °C 3.8 °C 1005 hPa West 3.7 km/h 3.7 km/h 83 % 0 mm
20:52 6.6 °C 3.9 °C 1006 hPa SW 5.3 km/h 5.3 km/h 83 % 0 mm
20:55 4 °C 1.6 °C 1008 hPa Calm   3.2 km/h 84 % 0 mm
21:02 6.2 °C 3.5 °C 1006 hPa Calm     83 % 0 mm
21:07 6.2 °C 3.5 °C 1006 hPa Calm     83 % 0 mm
21:12 6.1 °C 3.4 °C 1006 hPa SSW 3.7 km/h 3.7 km/h 83 % 0 mm
21:17 6.1 °C 3.4 °C 1006 hPa WSW 3.9 km/h 3.9 km/h 83 % 0 mm
21:18 6.1 °C 3.4 °C 1006 hPa WSW 3.7 km/h 3.7 km/h 83 % 0 mm
21:19 6.1 °C 3.4 °C 1006 hPa WSW 1.9 km/h 2.3 km/h 83 % 0 mm
21:24 6.1 °C 3.4 °C 1006 hPa Calm     83 % 0 mm
21:25 3.4 °C 1.1 °C 1008 hPa Calm   3.2 km/h 85 % 0 mm
21:29 6.1 °C 3.6 °C 1006 hPa West 1.9 km/h 1.9 km/h 84 % 0 mm
21:34 6.1 °C 3.6 °C 1006 hPa West 3.2 km/h   84 % 0 mm
21:35 3.4 °C 1.1 °C 1008 hPa NNE 3.2 km/h 3.2 km/h 85 % 0 mm
21:36 6.1 °C 3.6 °C 1006 hPa WSW 3.7 km/h 3.7 km/h 84 % 0 mm
21:41 6.1 °C 3.6 °C 1006 hPa WSW 2.3 km/h 2.3 km/h 84 % 0 mm
21:46 6.1 °C 3.6 °C 1006 hPa SW 3.2 km/h   84 % 0 mm
21:51 5.9 °C 3.4 °C 1006 hPa SW 1.9 km/h   84 % 0 mm
21:55 3.7 °C 1.6 °C 1008 hPa NNE 1.6 km/h 3.2 km/h 86 % 0 mm
21:57 5.9 °C 3.2 °C 1006 hPa West 3.7 km/h 3.7 km/h 83 % 0 mm
22:05 3.5 °C 1.2 °C 1008 hPa NNW 1.6 km/h 1.6 km/h 85 % 0 mm
22:15 5.9 °C 3.2 °C 1007 hPa NW 3.7 km/h 3.7 km/h 83 % 0 mm
22:20 5.9 °C 3.2 °C 1007 hPa NW 3.7 km/h 3.7 km/h 83 % 0 mm
22:25 5.9 °C 3.2 °C 1007 hPa West 3.7 km/h 3.7 km/h 83 % 0 mm
22:30 6 °C 3.3 °C 1007 hPa WSW 3.7 km/h 3.7 km/h 83 % 0 mm
22:35 6.1 °C 3.4 °C 1007 hPa WNW 5.6 km/h 5.6 km/h 83 % 0 mm
22:40 6 °C 3.3 °C 1007 hPa WSW 3.7 km/h 3.7 km/h 83 % 0 mm
22:45 6 °C 3.3 °C 1007 hPa NW 1.9 km/h 1.9 km/h 83 % 0 mm
22:50 6 °C 3.3 °C 1007 hPa Calm     83 % 0 mm
22:55 5.9 °C 3.2 °C 1007 hPa ESE 3.9 km/h 3.9 km/h 83 % 0 mm
22:59 5.7 °C 3.1 °C 1007 hPa ESE 7.4 km/h 7.4 km/h 83 % 0 mm
23:04 5.7 °C 3.1 °C 1007 hPa Calm     83 % 0 mm
23:05 2.6 °C 0.2 °C 1008 hPa WSW 3.2 km/h 4.8 km/h 84 % 0 mm
23:09 5.7 °C 3.1 °C 1007 hPa Calm     83 % 0 mm
23:12 5.6 °C 3.1 °C 1007 hPa ENE 3.7 km/h 3.7 km/h 84 % 0 mm
23:22 5.4 °C 2.9 °C 1007 hPa Calm     84 % 0 mm
23:25 3 °C 0.7 °C 1008 hPa West 3.2 km/h 3.2 km/h 85 % 0 mm
23:27 5.3 °C 2.8 °C 1007 hPa NNW 1.9 km/h   84 % 0 mm
23:32 5.1 °C 2.6 °C 1007 hPa Calm     84 % 0 mm
23:35 3.1 °C 0.8 °C 1008 hPa West 3.2 km/h 3.2 km/h 85 % 0 mm
23:37 5.1 °C 2.6 °C 1007 hPa Calm     84 % 0 mm
23:43 5.1 °C 2.6 °C 1007 hPa Calm     84 % 0 mm
23:45 2.7 °C 0.4 °C 1008 hPa WSW 3.2 km/h 3.2 km/h 85 % 0 mm
23:47 5 °C 2.5 °C 1007 hPa Calm     84 % 0 mm
23:48 5 °C 2.5 °C 1007 hPa Calm     84 % 0 mm
23:53 5 °C 2.5 °C 1007 hPa Calm     84 % 0 mm
23:55 3 °C 0.7 °C 1008 hPa SW 3.2 km/h 6.4 km/h 85 % 0 mm
23:58 5 °C 2.5 °C 1007 hPa Calm     84 % 0 mm
Meteo Sesrovires
Elogis d' Weather Underground - 1.5 mb

Guio original per  Jim McMurry - jmcmurry@mwt.net Adaptat per a la plantilla per  Wim van der Kuil - Leuven-Template.eu

Trobareu la nostra informacio del temps tambe a:

Weather Underground

AWEKAS